PrentiSS Brown — WDE6848 — position and weather

sailwx.info

Track history (hours):
 
Tides and Currents Weather Stations Pressure Air Temp Water Temp Dewpoint Dewpoint Depression Visibility Wind Speed Wind Dir Waves Ship Positions

PrentiSS Brown

Owner: Port City Marine Services Inc, Muskegon, MI. More information available from US FCC via Universal Licensing System and Coast Guard Vessel Documentation Center.

Last reported at 2015-May-23 19:33 UTC. Time now 2015-May-25 11:22 UTC.
Position N 45°01' W 085°57'.

Length 38 m; draft 5.3 m.

Type: Other ship. MMSI: 366922280.

Date/timePositionNaut miles runAvg speedWind from/ knotsBaromVisibWave heightAir tempDewpointWater temp
2015-May-23 19:33N 45°01' W 085°57'8 8.1
2015-May-23 18:33N 45°06' W 085°49'8 8.2
2015-May-23 17:33N 45°12' W 085°40'8 8.0
2015-May-23 16:33N 45°16' W 085°30'8 7.6
2015-May-23 15:33N 45°19' W 085°21'2 2.2
2015-May-23 14:33N 45°19' W 085°18'0 0.0
2015-May-23 13:33N 45°19' W 085°18'0 0.0
2015-May-23 12:33N 45°19' W 085°18'0 0.0
2015-May-23 11:33N 45°19' W 085°18'0 0.0
2015-May-23 10:33N 45°19' W 085°18'0 0.0
2015-May-23 09:33N 45°19' W 085°18'0 0.0
2015-May-23 08:33N 45°19' W 085°18'0 0.0
2015-May-23 07:33N 45°19' W 085°18'0 0.0
2015-May-23 06:33N 45°19' W 085°18'0 0.0
2015-May-23 05:33N 45°19' W 085°18'1 0.7
2015-May-23 04:33N 45°20' W 085°17'8 7.6
2015-May-23 03:33N 45°17' W 085°27'9 9.5
2015-May-23 02:33N 45°13' W 085°39'9 9.4
2015-May-23 01:33N 45°06' W 085°49'  
Track history (hours):
 
Tides and Currents Weather Stations Pressure Air Temp Water Temp Dewpoint Dewpoint Depression Visibility Wind Speed Wind Dir Waves Ship Positions

PrentiSS Brown

Owner: Port City Marine Services Inc, Muskegon, MI. More information available from US FCC via Universal Licensing System and Coast Guard Vessel Documentation Center.

Last reported at 2015-May-23 19:33 UTC. Time now 2015-May-25 11:22 UTC.
Position N 45°01' W 085°57'.

Length 38 m; draft 5.3 m.

Type: Other ship. MMSI: 366922280.

Date/timePositionNaut miles runAvg speedWind from/ knotsBaromVisibWave heightAir tempDewpointWater temp
2015-May-23 19:33N 45°01' W 085°57'8 8.1
2015-May-23 18:33N 45°06' W 085°49'8 8.2
2015-May-23 17:33N 45°12' W 085°40'8 8.0
2015-May-23 16:33N 45°16' W 085°30'8 7.6
2015-May-23 15:33N 45°19' W 085°21'2 2.2
2015-May-23 14:33N 45°19' W 085°18'0 0.0
2015-May-23 13:33N 45°19' W 085°18'0 0.0
2015-May-23 12:33N 45°19' W 085°18'0 0.0
2015-May-23 11:33N 45°19' W 085°18'0 0.0
2015-May-23 10:33N 45°19' W 085°18'0 0.0
2015-May-23 09:33N 45°19' W 085°18'0 0.0
2015-May-23 08:33N 45°19' W 085°18'0 0.0
2015-May-23 07:33N 45°19' W 085°18'0 0.0
2015-May-23 06:33N 45°19' W 085°18'0 0.0
2015-May-23 05:33N 45°19' W 085°18'1 0.7
2015-May-23 04:33N 45°20' W 085°17'8 7.6
2015-May-23 03:33N 45°17' W 085°27'9 9.5
2015-May-23 02:33N 45°13' W 085°39'9 9.4
2015-May-23 01:33N 45°06' W 085°49'  

Dump ship's entire track history